createdAt,value
2023-04-18T00:00:51.068Z,0.00
2023-04-18T00:01:50.989Z,0.00
2023-04-18T00:02:51.147Z,0.00
2023-04-18T00:03:51.146Z,0.00
2023-04-18T00:04:51.038Z,0.00
2023-04-18T00:05:50.989Z,0.00
2023-04-18T00:06:50.995Z,0.00
2023-04-18T00:07:50.903Z,0.00
2023-04-18T00:08:50.949Z,0.00
2023-04-18T00:09:50.927Z,0.00
2023-04-18T00:10:50.916Z,0.00
2023-04-18T00:11:50.856Z,0.00
2023-04-18T00:12:50.888Z,0.00
2023-04-18T00:13:50.896Z,0.00
2023-04-18T00:14:50.896Z,0.00
2023-04-18T00:15:50.906Z,0.00
2023-04-18T00:16:51.552Z,0.00
2023-04-18T00:17:50.884Z,0.00
2023-04-18T00:18:50.806Z,0.00
2023-04-18T00:19:50.878Z,0.00
2023-04-18T00:20:50.811Z,0.00
2023-04-18T00:21:50.773Z,0.00
2023-04-18T00:22:50.760Z,0.00
2023-04-18T00:23:50.761Z,0.00
2023-04-18T00:24:50.795Z,0.00
2023-04-18T00:25:50.857Z,0.00
2023-04-18T00:26:50.778Z,0.00
2023-04-18T00:27:50.804Z,0.00
2023-04-18T00:28:50.707Z,0.00
2023-04-18T00:29:50.730Z,0.00
2023-04-18T00:30:50.742Z,0.00
2023-04-18T00:31:50.705Z,0.00
2023-04-18T00:32:50.716Z,0.00
2023-04-18T00:33:50.673Z,0.00
2023-04-18T00:34:50.710Z,0.00
2023-04-18T00:35:50.648Z,0.00
2023-04-18T00:36:50.630Z,0.00
2023-04-18T00:37:50.627Z,0.00
2023-04-18T00:38:50.592Z,0.00
2023-04-18T00:39:50.619Z,0.00
2023-04-18T00:40:50.587Z,0.00
2023-04-18T00:41:50.592Z,0.00
2023-04-18T00:42:50.563Z,0.00
2023-04-18T00:43:50.624Z,0.00
2023-04-18T00:44:50.561Z,0.00
2023-04-18T00:45:50.569Z,0.00
2023-04-18T00:46:50.518Z,0.00
2023-04-18T00:47:50.605Z,0.00
2023-04-18T00:48:50.499Z,0.00
2023-04-18T00:49:50.539Z,0.00
2023-04-18T00:50:50.525Z,0.00
2023-04-18T00:51:50.520Z,0.00
2023-04-18T00:52:50.556Z,0.00
2023-04-18T00:53:50.494Z,0.00
2023-04-18T00:54:50.433Z,0.00
2023-04-18T00:55:50.484Z,0.00
2023-04-18T00:56:50.472Z,0.00
2023-04-18T00:57:50.454Z,0.00
2023-04-18T00:58:50.400Z,0.00
2023-04-18T00:59:50.388Z,0.00
2023-04-18T01:00:50.410Z,0.00
2023-04-18T01:01:50.427Z,0.00
2023-04-18T01:02:50.453Z,0.00
2023-04-18T01:03:50.539Z,0.00
2023-04-18T01:04:56.924Z,0.00
2023-04-18T01:05:50.345Z,0.00
2023-04-18T01:06:50.341Z,0.00
2023-04-18T01:07:50.325Z,0.00
2023-04-18T01:08:50.343Z,0.00
2023-04-18T01:09:50.365Z,0.00
2023-04-18T01:10:50.389Z,0.00
2023-04-18T01:11:50.288Z,0.00
2023-04-18T01:12:50.260Z,0.00
2023-04-18T01:13:50.387Z,0.00
2023-04-18T01:14:50.228Z,0.00
2023-04-18T01:15:50.315Z,0.00
2023-04-18T01:16:50.246Z,0.00
2023-04-18T01:17:50.350Z,0.00
2023-04-18T01:18:50.272Z,0.00
2023-04-18T01:19:50.229Z,0.00
2023-04-18T01:20:50.234Z,0.00
2023-04-18T01:21:50.249Z,0.00
2023-04-18T01:22:50.161Z,0.00
2023-04-18T01:23:50.161Z,0.00
2023-04-18T01:24:50.226Z,0.00
2023-04-18T01:25:50.163Z,0.00
2023-04-18T01:26:50.213Z,0.00
2023-04-18T01:27:50.151Z,0.00
2023-04-18T01:28:50.135Z,0.00
2023-04-18T01:29:50.079Z,0.00
2023-04-18T01:30:50.102Z,0.00
2023-04-18T01:31:50.230Z,0.00
2023-04-18T01:32:50.103Z,0.00
2023-04-18T01:33:50.037Z,0.00
2023-04-18T01:34:50.067Z,0.00
2023-04-18T01:35:50.040Z,0.00
2023-04-18T01:36:50.041Z,0.00
2023-04-18T01:37:50.074Z,0.00
2023-04-18T01:38:49.976Z,0.00
2023-04-18T01:39:49.973Z,0.00
2023-04-18T01:40:50.075Z,0.00
2023-04-18T01:41:49.973Z,0.00
2023-04-18T01:42:49.957Z,0.00
2023-04-18T01:43:50.026Z,0.00
2023-04-18T01:44:49.923Z,0.00
2023-04-18T01:45:49.911Z,0.00
2023-04-18T01:46:50.007Z,0.00
2023-04-18T01:47:49.958Z,0.00
2023-04-18T01:48:49.908Z,0.00
2023-04-18T01:49:49.871Z,0.00
2023-04-18T01:50:49.922Z,0.00
2023-04-18T01:51:49.886Z,0.00
2023-04-18T01:52:49.838Z,0.00
2023-04-18T01:53:49.884Z,0.00
2023-04-18T01:54:49.848Z,0.00
2023-04-18T01:55:49.879Z,0.00
2023-04-18T01:56:49.811Z,0.00
2023-04-18T01:57:49.882Z,0.00
2023-04-18T01:58:49.854Z,0.00
2023-04-18T01:59:49.785Z,0.00
2023-04-18T02:00:49.864Z,0.00
2023-04-18T02:01:49.839Z,0.00
2023-04-18T02:02:49.897Z,0.00
2023-04-18T02:03:50.003Z,0.00
2023-04-18T02:04:49.809Z,0.00
2023-04-18T02:05:49.767Z,0.00
2023-04-18T02:06:49.774Z,0.00
2023-04-18T02:07:49.714Z,0.00
2023-04-18T02:08:49.685Z,0.00
2023-04-18T02:09:49.675Z,0.00
2023-04-18T02:10:49.679Z,0.00
2023-04-18T02:11:49.676Z,0.00
2023-04-18T02:12:49.649Z,0.00
2023-04-18T02:13:49.686Z,0.00
2023-04-18T02:14:49.673Z,0.00
2023-04-18T02:15:49.633Z,0.00
2023-04-18T02:16:49.746Z,0.00
2023-04-18T02:17:49.631Z,0.00
2023-04-18T02:18:49.674Z,0.00
2023-04-18T02:19:49.595Z,0.00
2023-04-18T02:20:49.656Z,0.00
2023-04-18T02:21:49.620Z,0.00
2023-04-18T02:22:49.692Z,0.00
2023-04-18T02:23:49.551Z,0.00
2023-04-18T02:24:49.551Z,0.00
2023-04-18T02:25:49.553Z,0.00
2023-04-18T02:26:49.525Z,0.00
2023-04-18T02:27:49.498Z,0.00
2023-04-18T02:28:49.592Z,0.00
2023-04-18T02:29:49.513Z,0.00
2023-04-18T02:30:49.482Z,0.00
2023-04-18T02:31:49.503Z,0.00
2023-04-18T02:32:49.486Z,0.00
2023-04-18T02:33:49.476Z,0.00
2023-04-18T02:34:49.448Z,0.00
2023-04-18T02:35:49.456Z,0.00
2023-04-18T02:36:49.471Z,0.00
2023-04-18T02:37:49.408Z,0.00
2023-04-18T02:38:49.396Z,0.00
2023-04-18T02:39:49.424Z,0.00
2023-04-18T02:40:49.385Z,0.00
2023-04-18T02:41:49.394Z,0.00
2023-04-18T02:42:49.360Z,0.00
2023-04-18T02:43:49.343Z,0.00
2023-04-18T02:44:49.329Z,0.00
2023-04-18T02:45:49.389Z,0.00
2023-04-18T02:46:49.414Z,0.00
2023-04-18T02:47:55.181Z,0.00
2023-04-18T02:48:49.353Z,0.00
2023-04-18T02:49:49.352Z,0.00
2023-04-18T02:50:49.342Z,0.00
2023-04-18T02:51:49.317Z,0.00
2023-04-18T02:52:49.276Z,0.00
2023-04-18T02:53:49.289Z,0.00
2023-04-18T02:54:49.332Z,0.00
2023-04-18T02:55:49.246Z,0.00
2023-04-18T02:56:49.258Z,0.00
2023-04-18T02:57:49.214Z,0.00
2023-04-18T02:58:49.278Z,0.00
2023-04-18T02:59:49.188Z,0.00
2023-04-18T03:00:49.208Z,0.00
2023-04-18T03:01:49.320Z,0.00
2023-04-18T03:02:49.320Z,0.00
2023-04-18T03:03:49.195Z,0.00
2023-04-18T03:04:49.186Z,0.00
2023-04-18T03:05:49.128Z,0.00
2023-04-18T03:06:49.130Z,0.00
2023-04-18T03:07:49.125Z,0.00
2023-04-18T03:08:49.122Z,0.00
2023-04-18T03:09:49.108Z,0.00
2023-04-18T03:10:49.081Z,0.00
2023-04-18T03:11:49.073Z,0.00
2023-04-18T03:12:49.048Z,0.00
2023-04-18T03:13:49.074Z,0.00
2023-04-18T03:14:49.044Z,0.00
2023-04-18T03:15:49.063Z,0.00
2023-04-18T03:16:49.044Z,0.00
2023-04-18T03:17:49.161Z,0.00
2023-04-18T03:18:48.996Z,0.00
2023-04-18T03:19:49.042Z,0.00
2023-04-18T03:20:48.960Z,0.00
2023-04-18T03:21:48.960Z,0.00
2023-04-18T03:22:49.005Z,0.00
2023-04-18T03:23:49.036Z,0.00
2023-04-18T03:24:48.926Z,0.00
2023-04-18T03:25:48.925Z,0.00
2023-04-18T03:26:49.006Z,0.00
2023-04-18T03:27:48.905Z,0.00
2023-04-18T03:28:48.900Z,0.00
2023-04-18T03:29:48.878Z,0.00
2023-04-18T03:30:48.879Z,0.00
2023-04-18T03:31:48.963Z,0.00
2023-04-18T03:32:48.919Z,0.00
2023-04-18T03:33:48.890Z,0.00
2023-04-18T03:34:48.903Z,0.00
2023-04-18T03:35:48.825Z,0.00
2023-04-18T03:36:48.805Z,0.00
2023-04-18T03:37:48.815Z,0.00
2023-04-18T03:38:48.858Z,0.00
2023-04-18T03:39:48.827Z,0.00
2023-04-18T03:40:48.814Z,0.00
2023-04-18T03:41:48.890Z,0.00
2023-04-18T03:42:48.742Z,0.00
2023-04-18T03:43:48.752Z,0.00
2023-04-18T03:44:49.739Z,0.00
2023-04-18T03:45:48.784Z,0.00
2023-04-18T03:46:48.754Z,0.00
2023-04-18T03:47:48.729Z,0.00
2023-04-18T03:48:48.725Z,0.00
2023-04-18T03:49:48.672Z,0.00
2023-04-18T03:50:48.680Z,0.00
2023-04-18T03:51:48.684Z,0.00
2023-04-18T03:52:48.659Z,0.00
2023-04-18T03:53:48.651Z,0.00
2023-04-18T03:54:48.652Z,0.00
2023-04-18T03:55:48.607Z,0.00
2023-04-18T03:56:48.638Z,0.00
2023-04-18T03:57:48.684Z,0.00
2023-04-18T03:58:48.589Z,0.00
2023-04-18T03:59:48.606Z,1.00
2023-04-18T04:00:48.515Z,1.00
2023-04-18T04:01:48.601Z,0.00
2023-04-18T04:02:48.706Z,0.00
2023-04-18T04:03:48.734Z,0.00
2023-04-18T04:04:48.509Z,1.00
2023-04-18T04:05:48.488Z,2.00
2023-04-18T04:06:48.456Z,1.00
2023-04-18T04:07:48.541Z,2.00
2023-04-18T04:08:48.448Z,9.00
2023-04-18T04:09:48.460Z,8.00
2023-04-18T04:10:48.420Z,5.00
2023-04-18T04:11:48.413Z,3.00
2023-04-18T04:12:48.409Z,2.00
2023-04-18T04:13:48.388Z,3.00
2023-04-18T04:14:48.410Z,4.00
2023-04-18T04:15:48.396Z,6.00
2023-04-18T04:16:48.431Z,10.00
2023-04-18T04:17:48.352Z,12.00
2023-04-18T04:18:48.378Z,10.00
2023-04-18T04:19:48.424Z,9.00
2023-04-18T04:20:48.350Z,10.00
2023-04-18T04:21:48.336Z,12.00
2023-04-18T04:22:48.343Z,13.00
2023-04-18T04:23:48.305Z,14.00
2023-04-18T04:24:48.327Z,17.00
2023-04-18T04:25:48.321Z,20.00
2023-04-18T04:26:48.320Z,25.00
2023-04-18T04:27:48.260Z,29.00
2023-04-18T04:28:48.234Z,36.00
2023-04-18T04:29:48.263Z,47.00
2023-04-18T04:30:48.208Z,60.00
2023-04-18T04:31:48.219Z,69.00
2023-04-18T04:32:48.225Z,101.00
2023-04-18T04:33:48.190Z,122.00
2023-04-18T04:34:48.186Z,85.00
2023-04-18T04:35:48.159Z,99.00
2023-04-18T04:36:48.179Z,120.00
2023-04-18T04:37:48.270Z,155.00
2023-04-18T04:38:48.135Z,186.00
2023-04-18T04:39:48.124Z,199.00
2023-04-18T04:40:48.112Z,200.00
2023-04-18T04:41:48.263Z,220.00
2023-04-18T04:42:48.122Z,264.00
2023-04-18T04:43:48.089Z,309.00
2023-04-18T04:44:48.127Z,281.00
2023-04-18T04:45:48.085Z,339.00
2023-04-18T04:46:48.086Z,496.00
2023-04-18T04:47:48.078Z,418.00
2023-04-18T04:48:48.044Z,393.00
2023-04-18T04:49:48.025Z,529.00
2023-04-18T04:50:48.030Z,781.00
2023-04-18T04:51:48.086Z,697.00
2023-04-18T04:52:48.030Z,609.00
2023-04-18T04:53:48.003Z,572.00
2023-04-18T04:54:47.968Z,626.00
2023-04-18T04:55:48.032Z,666.00
2023-04-18T04:56:47.997Z,594.00
2023-04-18T04:57:48.001Z,517.00
2023-04-18T04:58:47.934Z,376.00
2023-04-18T04:59:47.913Z,657.00
2023-04-18T05:00:47.952Z,707.00
2023-04-18T05:01:47.917Z,706.00
2023-04-18T05:02:48.105Z,752.00
2023-04-18T05:03:48.131Z,642.00
2023-04-18T05:04:47.966Z,744.00
2023-04-18T05:05:47.942Z,552.00
2023-04-18T05:06:47.882Z,526.00
2023-04-18T05:07:47.851Z,862.00
2023-04-18T05:08:47.905Z,866.00
2023-04-18T05:09:47.924Z,826.00
2023-04-18T05:10:47.928Z,840.00
2023-04-18T05:11:47.949Z,1016.00
2023-04-18T05:12:47.838Z,889.00
2023-04-18T05:13:47.977Z,758.00
2023-04-18T05:14:47.769Z,757.00
2023-04-18T05:15:47.813Z,878.00
2023-04-18T05:16:47.805Z,1068.00
2023-04-18T05:17:47.795Z,577.00
2023-04-18T05:18:47.739Z,623.00
2023-04-18T05:19:47.725Z,1046.00
2023-04-18T05:20:47.808Z,972.00
2023-04-18T05:21:47.692Z,1105.00
2023-04-18T05:22:47.748Z,650.00
2023-04-18T05:23:47.704Z,735.00
2023-04-18T05:24:47.697Z,783.00
2023-04-18T05:25:47.659Z,949.00
2023-04-18T05:26:47.750Z,985.00
2023-04-18T05:27:47.643Z,909.00
2023-04-18T05:28:47.629Z,909.00
2023-04-18T05:29:47.663Z,1041.00
2023-04-18T05:30:47.671Z,1196.00
2023-04-18T05:31:47.760Z,987.00
2023-04-18T05:32:47.637Z,992.00
2023-04-18T05:33:47.603Z,791.00
2023-04-18T05:34:47.608Z,1094.00
2023-04-18T05:35:47.572Z,1567.00
2023-04-18T05:36:47.633Z,1355.00
2023-04-18T05:37:47.707Z,1376.00
2023-04-18T05:38:47.587Z,1366.00
2023-04-18T05:39:47.519Z,2407.00
2023-04-18T05:40:47.523Z,2054.00
2023-04-18T05:41:47.558Z,1935.00
2023-04-18T05:42:47.543Z,2114.00
2023-04-18T05:44:01.788Z,2512.00
2023-04-18T05:44:47.614Z,2053.00
2023-04-18T05:45:47.531Z,2609.00
2023-04-18T05:46:47.495Z,2559.00
2023-04-18T05:47:47.520Z,3230.00
2023-04-18T05:48:47.463Z,2180.00
2023-04-18T05:49:47.487Z,2379.00
2023-04-18T05:50:47.469Z,2572.00
2023-04-18T05:51:47.408Z,1906.00
2023-04-18T05:52:47.436Z,4350.00
2023-04-18T05:53:47.407Z,2991.00
2023-04-18T05:54:47.473Z,3380.00
2023-04-18T05:55:47.471Z,2850.00
2023-04-18T05:56:47.382Z,3114.00
2023-04-18T05:57:47.361Z,3083.00
2023-04-18T05:58:47.353Z,2256.00
2023-04-18T05:59:47.448Z,3330.00
2023-04-18T06:00:47.366Z,3308.00
2023-04-18T06:01:47.356Z,4233.00
2023-04-18T06:02:47.493Z,2979.00
2023-04-18T06:03:47.602Z,2404.00
2023-04-18T06:04:47.400Z,2954.00
2023-04-18T06:05:47.400Z,2407.00
2023-04-18T06:06:47.301Z,1960.00
2023-04-18T06:07:47.279Z,2419.00
2023-04-18T06:08:47.261Z,3239.00
2023-04-18T06:09:47.229Z,2702.00
2023-04-18T06:10:47.250Z,2774.00
2023-04-18T06:11:47.253Z,2789.00
2023-04-18T06:12:47.250Z,2117.00
2023-04-18T06:13:47.244Z,3941.00
2023-04-18T06:14:47.210Z,3262.00
2023-04-18T06:15:47.193Z,3194.00
2023-04-18T06:16:47.159Z,6187.00
2023-04-18T06:17:47.256Z,7381.00
2023-04-18T06:18:47.174Z,6351.00
2023-04-18T06:19:47.166Z,3056.00
2023-04-18T06:20:47.164Z,5185.00
2023-04-18T06:21:47.129Z,4133.00
2023-04-18T06:22:47.100Z,3636.00
2023-04-18T06:23:47.120Z,4200.00
2023-04-18T06:24:47.103Z,4465.00
2023-04-18T06:25:47.129Z,3700.00
2023-04-18T06:26:47.331Z,3084.00
2023-04-18T06:27:47.174Z,2769.00
2023-04-18T06:28:47.085Z,4126.00
2023-04-18T06:29:47.050Z,4022.00
2023-04-18T06:30:47.057Z,3479.00
2023-04-18T06:31:47.068Z,4024.00
2023-04-18T06:32:47.065Z,3479.00
2023-04-18T06:33:46.981Z,3666.00
2023-04-18T06:34:46.975Z,3467.00
2023-04-18T06:35:46.980Z,2961.00
2023-04-18T06:36:46.992Z,3461.00
2023-04-18T06:37:46.983Z,3940.00
2023-04-18T06:38:47.066Z,3718.00
2023-04-18T06:39:47.086Z,3581.00
2023-04-18T06:40:47.018Z,4401.00
2023-04-18T06:41:46.948Z,3727.00
2023-04-18T06:42:46.934Z,2767.00
2023-04-18T06:44:02.132Z,2598.00
2023-04-18T06:44:47.522Z,2800.00
2023-04-18T06:45:47.097Z,2786.00
2023-04-18T06:46:46.859Z,3437.00
2023-04-18T06:47:46.904Z,2985.00
2023-04-18T06:48:47.134Z,3406.00
2023-04-18T06:49:46.886Z,2534.00
2023-04-18T06:50:46.881Z,2334.00
2023-04-18T06:51:46.830Z,2898.00
2023-04-18T06:52:46.791Z,2709.00
2023-04-18T06:53:46.890Z,2929.00
2023-04-18T06:54:46.930Z,2973.00
2023-04-18T06:55:46.804Z,3101.00
2023-04-18T06:56:46.774Z,2628.00
2023-04-18T06:57:46.769Z,2679.00
2023-04-18T06:58:46.781Z,2551.00
2023-04-18T06:59:46.937Z,2388.00
2023-04-18T07:00:46.815Z,2809.00
2023-04-18T07:01:46.776Z,2727.00
2023-04-18T07:02:46.908Z,2559.00
2023-04-18T07:03:46.767Z,3769.00
2023-04-18T07:04:46.799Z,2934.00
2023-04-18T07:05:46.686Z,2811.00
2023-04-18T07:06:46.677Z,2548.00
2023-04-18T07:07:46.684Z,3602.00
2023-04-18T07:08:46.671Z,3222.00
2023-04-18T07:09:46.672Z,4085.00
2023-04-18T07:10:46.603Z,3036.00
2023-04-18T07:11:46.630Z,2332.00
2023-04-18T07:12:46.613Z,2813.00
2023-04-18T07:13:46.702Z,4342.00
2023-04-18T07:14:46.602Z,2893.00
2023-04-18T07:15:46.563Z,2891.00
2023-04-18T07:16:46.645Z,4054.00
2023-04-18T07:17:46.745Z,3565.00
2023-04-18T07:18:46.537Z,3376.00
2023-04-18T07:19:46.575Z,3944.00
2023-04-18T07:20:46.519Z,2597.00
2023-04-18T07:21:46.482Z,4484.00
2023-04-18T07:22:46.580Z,3670.00
2023-04-18T07:23:46.497Z,5390.00
2023-04-18T07:24:46.485Z,3323.00
2023-04-18T07:25:46.655Z,5575.00
2023-04-18T07:26:46.521Z,2608.00
2023-04-18T07:27:46.573Z,4233.00
2023-04-18T07:28:46.479Z,5362.00
2023-04-18T07:29:46.424Z,5448.00
2023-04-18T07:30:46.458Z,6108.00
2023-04-18T07:31:46.461Z,4931.00
2023-04-18T07:32:46.485Z,2581.00
2023-04-18T07:33:46.394Z,6444.00
2023-04-18T07:34:46.415Z,4018.00
2023-04-18T07:35:46.347Z,4148.00
2023-04-18T07:36:46.381Z,4194.00
2023-04-18T07:37:46.395Z,3637.00
2023-04-18T07:38:46.376Z,4810.00
2023-04-18T07:39:46.350Z,3260.00
2023-04-18T07:40:46.420Z,4173.00
2023-04-18T07:41:46.424Z,3548.00
2023-04-18T07:42:46.439Z,3495.00
2023-04-18T07:43:46.283Z,5644.00
2023-04-18T07:44:46.289Z,3251.00
2023-04-18T07:45:46.254Z,3685.00
2023-04-18T07:46:46.349Z,7095.00
2023-04-18T07:47:46.255Z,4075.00
2023-04-18T07:48:46.247Z,7466.00
2023-04-18T07:49:46.249Z,6114.00
2023-04-18T07:50:46.257Z,5233.00
2023-04-18T07:51:46.286Z,6541.00
2023-04-18T07:52:46.190Z,7269.00
2023-04-18T07:53:46.205Z,4796.00
2023-04-18T07:54:46.187Z,7165.00
2023-04-18T07:55:46.170Z,5702.00
2023-04-18T07:56:46.269Z,3700.00
2023-04-18T07:57:47.498Z,2750.00
2023-04-18T07:58:46.169Z,5461.00
2023-04-18T07:59:46.133Z,5122.00
2023-04-18T08:00:46.168Z,4457.00
2023-04-18T08:01:46.121Z,4523.00
2023-04-18T08:02:46.173Z,5793.00
2023-04-18T08:03:46.153Z,8601.00
2023-04-18T08:04:46.611Z,7319.00
2023-04-18T08:05:46.084Z,6055.00
2023-04-18T08:06:46.060Z,4297.00
2023-04-18T08:07:46.096Z,7008.00
2023-04-18T08:08:46.020Z,6326.00
2023-04-18T08:09:46.051Z,5809.00
2023-04-18T08:10:46.011Z,5549.00
2023-04-18T08:11:46.050Z,4384.00
2023-04-18T08:12:46.004Z,3935.00
2023-04-18T08:13:46.050Z,4837.00
2023-04-18T08:14:46.039Z,5346.00
2023-04-18T08:15:46.054Z,4128.00
2023-04-18T08:16:46.072Z,4962.00
2023-04-18T08:17:45.970Z,4709.00
2023-04-18T08:18:46.011Z,4781.00
2023-04-18T08:19:45.916Z,4834.00
2023-04-18T08:20:46.010Z,4355.00
2023-04-18T08:21:45.973Z,5894.00
2023-04-18T08:23:02.071Z,3779.00
2023-04-18T08:23:45.915Z,3740.00
2023-04-18T08:25:01.122Z,3938.00
2023-04-18T08:25:45.921Z,8083.00
2023-04-18T08:26:45.856Z,9122.00
2023-04-18T08:27:45.844Z,10504.00
2023-04-18T08:28:46.655Z,10712.00
2023-04-18T08:29:45.924Z,5754.00
2023-04-18T08:30:45.856Z,9294.00
2023-04-18T08:31:45.884Z,8763.00
2023-04-18T08:32:46.019Z,7443.00
2023-04-18T08:33:45.839Z,5168.00
2023-04-18T08:34:45.768Z,8330.00
2023-04-18T08:35:45.850Z,9376.00
2023-04-18T08:36:45.806Z,8869.00
2023-04-18T08:37:45.791Z,6979.00
2023-04-18T08:38:45.816Z,9323.00
2023-04-18T08:39:45.733Z,11621.00
2023-04-18T08:40:45.798Z,9111.00
2023-04-18T08:41:45.760Z,10039.00
2023-04-18T08:42:45.687Z,8762.00
2023-04-18T08:43:45.701Z,9354.00
2023-04-18T08:44:45.720Z,11224.00
2023-04-18T08:45:45.705Z,8484.00
2023-04-18T08:46:45.728Z,4330.00
2023-04-18T08:47:45.756Z,10669.00
2023-04-18T08:48:45.713Z,7814.00
2023-04-18T08:49:45.617Z,6060.00
2023-04-18T08:50:45.673Z,4742.00
2023-04-18T08:51:45.718Z,6715.00
2023-04-18T08:52:45.608Z,7159.00
2023-04-18T08:53:45.671Z,10085.00
2023-04-18T08:54:45.718Z,7072.00
2023-04-18T08:55:45.579Z,7495.00
2023-04-18T08:56:45.601Z,5606.00
2023-04-18T08:57:45.524Z,4752.00
2023-04-18T08:58:45.610Z,9345.00
2023-04-18T08:59:47.090Z,9746.00
2023-04-18T09:00:45.709Z,13537.00
2023-04-18T09:01:45.547Z,8623.00
2023-04-18T09:02:45.578Z,10847.00
2023-04-18T09:03:45.558Z,10433.00
2023-04-18T09:04:45.494Z,9072.00
2023-04-18T09:05:45.589Z,6009.00
2023-04-18T09:06:45.531Z,10011.00
2023-04-18T09:07:45.476Z,8996.00
2023-04-18T09:08:45.444Z,9295.00
2023-04-18T09:09:45.403Z,10678.00
2023-04-18T09:10:46.840Z,16648.00
2023-04-18T09:11:45.522Z,14612.00
2023-04-18T09:12:45.383Z,15156.00
2023-04-18T09:13:45.539Z,15796.00
2023-04-18T09:14:45.343Z,15210.00
2023-04-18T09:15:45.389Z,10705.00
2023-04-18T09:16:45.414Z,7916.00
2023-04-18T09:17:45.357Z,11970.00
2023-04-18T09:18:45.366Z,10124.00
2023-04-18T09:19:45.491Z,7885.00
2023-04-18T09:20:45.305Z,7375.00
2023-04-18T09:21:45.417Z,11288.00
2023-04-18T09:22:45.364Z,8103.00
2023-04-18T09:23:45.288Z,11088.00
2023-04-18T09:24:45.319Z,7888.00
2023-04-18T09:25:45.684Z,6724.00
2023-04-18T09:26:45.228Z,7208.00
2023-04-18T09:27:45.250Z,9547.00
2023-04-18T09:28:45.316Z,8134.00
2023-04-18T09:29:45.213Z,7963.00
2023-04-18T09:30:45.284Z,8273.00
2023-04-18T09:31:45.339Z,9689.00
2023-04-18T09:32:45.523Z,9665.00
2023-04-18T09:33:45.204Z,9611.00
2023-04-18T09:34:45.219Z,12551.00
2023-04-18T09:35:45.169Z,11544.00
2023-04-18T09:36:45.210Z,13022.00
2023-04-18T09:37:45.130Z,10961.00
2023-04-18T09:38:45.139Z,14060.00
2023-04-18T09:39:45.310Z,12873.00
2023-04-18T09:40:45.151Z,14408.00
2023-04-18T09:41:45.145Z,12992.00
2023-04-18T09:42:45.115Z,15239.00
2023-04-18T09:43:45.101Z,15958.00
2023-04-18T09:44:45.953Z,11985.00
2023-04-18T09:45:45.378Z,15200.00
2023-04-18T09:46:47.194Z,19321.00
2023-04-18T09:47:45.071Z,18325.00
2023-04-18T09:48:45.062Z,15804.00
2023-04-18T09:49:45.058Z,13431.00
2023-04-18T09:50:45.072Z,13377.00
2023-04-18T09:51:45.056Z,13078.00
2023-04-18T09:52:44.967Z,12454.00
2023-04-18T09:53:45.125Z,8970.00
2023-04-18T09:54:47.704Z,11517.00
2023-04-18T09:55:44.975Z,12310.00
2023-04-18T09:56:45.042Z,11566.00
2023-04-18T09:57:45.067Z,11919.00
2023-04-18T09:58:44.940Z,10660.00
2023-04-18T09:59:44.936Z,8077.00
2023-04-18T10:00:46.811Z,7820.00
2023-04-18T10:01:44.924Z,10220.00
2023-04-18T10:02:45.012Z,7607.00
2023-04-18T10:03:45.000Z,7256.00
2023-04-18T10:04:44.918Z,9137.00
2023-04-18T10:05:44.973Z,9136.00
2023-04-18T10:06:44.998Z,6918.00
2023-04-18T10:07:44.810Z,12816.00
2023-04-18T10:08:44.918Z,10195.00
2023-04-18T10:09:44.884Z,8568.00
2023-04-18T10:10:44.843Z,9385.00
2023-04-18T10:11:44.846Z,7054.00
2023-04-18T10:12:44.763Z,7942.00
2023-04-18T10:13:44.835Z,6563.00
2023-04-18T10:14:44.729Z,7065.00
2023-04-18T10:15:45.379Z,5142.00
2023-04-18T10:16:44.789Z,8928.00
2023-04-18T10:17:56.034Z,9273.00
2023-04-18T10:18:44.733Z,7906.00
2023-04-18T10:19:44.718Z,9338.00
2023-04-18T10:20:44.684Z,10234.00
2023-04-18T10:21:44.700Z,7812.00
2023-04-18T10:22:44.803Z,7113.00
2023-04-18T10:23:44.663Z,5958.00
2023-04-18T10:24:44.704Z,5624.00
2023-04-18T10:25:44.659Z,6269.00
2023-04-18T10:26:44.640Z,5696.00
2023-04-18T10:27:44.622Z,6042.00
2023-04-18T10:28:45.940Z,6145.00
2023-04-18T10:29:44.693Z,4943.00
2023-04-18T10:30:44.707Z,4705.00
2023-04-18T10:31:44.650Z,9389.00
2023-04-18T10:32:44.645Z,7574.00
2023-04-18T10:33:49.619Z,8154.00
2023-04-18T10:34:44.677Z,8523.00
2023-04-18T10:35:44.558Z,11107.00
2023-04-18T10:36:44.544Z,11695.00
2023-04-18T10:37:44.504Z,11899.00
2023-04-18T10:38:44.585Z,12152.00
2023-04-18T10:39:44.480Z,10728.00
2023-04-18T10:40:44.540Z,11971.00
2023-04-18T10:41:44.492Z,11207.00
2023-04-18T10:42:44.447Z,7228.00
2023-04-18T10:43:44.486Z,16409.00
2023-04-18T10:44:44.554Z,38860.00
2023-04-18T10:45:44.425Z,29623.00
2023-04-18T10:46:44.466Z,24888.00
2023-04-18T10:47:44.577Z,37646.00
2023-04-18T10:48:44.384Z,30264.00
2023-04-18T10:49:44.389Z,33028.00
2023-04-18T10:50:44.399Z,29554.00
2023-04-18T10:51:44.403Z,23165.00
2023-04-18T10:52:44.395Z,22385.00
2023-04-18T10:53:44.347Z,20378.00
2023-04-18T10:54:44.396Z,12540.00
2023-04-18T10:55:44.344Z,14976.00
2023-04-18T10:56:44.341Z,15223.00
2023-04-18T10:57:44.338Z,17865.00
2023-04-18T10:58:44.354Z,15182.00
2023-04-18T10:59:44.287Z,12360.00
2023-04-18T11:00:44.379Z,11969.00
2023-04-18T11:01:44.304Z,9667.00
2023-04-18T11:02:44.330Z,11673.00
2023-04-18T11:03:44.343Z,12048.00
2023-04-18T11:04:44.218Z,10621.00
2023-04-18T11:05:44.273Z,11025.00
2023-04-18T11:06:44.310Z,11488.00
2023-04-18T11:07:44.206Z,12460.00
2023-04-18T11:08:44.279Z,14663.00
2023-04-18T11:09:45.483Z,18420.00
2023-04-18T11:10:44.191Z,17167.00
2023-04-18T11:11:44.184Z,17286.00
2023-04-18T11:12:44.206Z,14108.00
2023-04-18T11:13:44.187Z,11916.00
2023-04-18T11:14:44.165Z,11858.00
2023-04-18T11:15:44.148Z,15030.00
2023-04-18T11:16:44.193Z,13145.00
2023-04-18T11:17:44.211Z,13784.00
2023-04-18T11:18:44.094Z,14825.00
2023-04-18T11:19:44.344Z,11658.00
2023-04-18T11:20:44.177Z,10991.00
2023-04-18T11:21:44.076Z,11579.00
2023-04-18T11:22:44.055Z,12284.00
2023-04-18T11:23:44.056Z,13607.00
2023-04-18T11:24:44.078Z,12923.00
2023-04-18T11:25:44.130Z,12995.00
2023-04-18T11:26:44.024Z,14112.00
2023-04-18T11:27:44.068Z,15092.00
2023-04-18T11:28:43.999Z,15933.00
2023-04-18T11:29:43.972Z,15922.00
2023-04-18T11:30:43.976Z,14433.00
2023-04-18T11:31:44.101Z,12936.00
2023-04-18T11:32:43.967Z,11639.00
2023-04-18T11:33:43.962Z,12630.00
2023-04-18T11:34:43.930Z,16405.00
2023-04-18T11:35:43.923Z,19106.00
2023-04-18T11:36:43.928Z,19513.00
2023-04-18T11:37:43.938Z,17046.00
2023-04-18T11:38:43.906Z,15735.00
2023-04-18T11:39:43.906Z,15089.00
2023-04-18T11:40:43.894Z,18032.00
2023-04-18T11:41:43.865Z,14780.00
2023-04-18T11:42:43.873Z,9686.00
2023-04-18T11:43:43.940Z,6739.00
2023-04-18T11:44:43.882Z,6385.00
2023-04-18T11:45:43.844Z,6179.00
2023-04-18T11:46:43.860Z,8210.00
2023-04-18T11:47:43.945Z,9969.00
2023-04-18T11:48:43.862Z,13816.00
2023-04-18T11:49:43.779Z,13446.00
2023-04-18T11:50:43.820Z,11627.00
2023-04-18T11:51:43.762Z,9719.00
2023-04-18T11:52:43.808Z,7865.00
2023-04-18T11:53:43.776Z,6593.00
2023-04-18T11:54:43.746Z,6007.00
2023-04-18T11:55:43.761Z,5744.00
2023-04-18T11:56:43.703Z,5841.00
2023-04-18T11:57:43.738Z,5393.00
2023-04-18T11:58:43.674Z,5358.00
2023-04-18T11:59:43.707Z,5805.00
2023-04-18T12:00:43.692Z,5793.00
2023-04-18T12:01:43.672Z,5686.00
2023-04-18T12:02:43.845Z,5327.00
2023-04-18T12:03:43.801Z,5088.00
2023-04-18T12:04:43.789Z,6350.00
2023-04-18T12:05:43.827Z,8677.00
2023-04-18T12:06:43.654Z,9615.00
2023-04-18T12:07:43.590Z,11034.00
2023-04-18T12:08:43.684Z,13475.00
2023-04-18T12:09:43.575Z,13734.00
2023-04-18T12:10:43.570Z,11544.00
2023-04-18T12:11:43.568Z,11483.00
2023-04-18T12:12:43.533Z,11515.00
2023-04-18T12:13:43.604Z,10715.00
2023-04-18T12:14:43.548Z,9287.00
2023-04-18T12:15:43.559Z,6516.00
2023-04-18T12:16:43.528Z,6220.00
2023-04-18T12:17:43.556Z,11483.00
2023-04-18T12:18:43.470Z,15377.00
2023-04-18T12:19:43.461Z,14049.00
2023-04-18T12:20:43.458Z,15722.00
2023-04-18T12:21:43.516Z,14688.00
2023-04-18T12:22:43.444Z,16097.00
2023-04-18T12:23:43.416Z,17170.00
2023-04-18T12:24:43.430Z,15316.00
2023-04-18T12:25:43.389Z,26479.00
2023-04-18T12:26:43.407Z,19288.00
2023-04-18T12:27:43.397Z,19921.00